createdAt,value
2024-03-10T00:00:25.321Z,10.23
2024-03-10T00:02:52.709Z,10.21
2024-03-10T00:05:20.919Z,10.20
2024-03-10T00:07:47.955Z,10.18
2024-03-10T00:10:18.693Z,10.16
2024-03-10T00:12:49.268Z,10.15
2024-03-10T00:15:17.335Z,10.13
2024-03-10T00:17:44.907Z,10.12
2024-03-10T00:20:13.030Z,10.12
2024-03-10T00:22:44.667Z,10.11
2024-03-10T00:25:13.974Z,10.11
2024-03-10T00:27:41.847Z,10.09
2024-03-10T00:30:10.224Z,10.09
2024-03-10T00:32:37.965Z,10.09
2024-03-10T00:35:06.538Z,10.09
2024-03-10T00:37:33.816Z,10.08
2024-03-10T00:40:00.772Z,10.07
2024-03-10T00:42:28.437Z,10.06
2024-03-10T00:44:55.265Z,10.05
2024-03-10T00:47:22.198Z,10.03
2024-03-10T00:49:50.452Z,10.02
2024-03-10T00:52:17.666Z,10.01
2024-03-10T00:54:44.582Z,10.01
2024-03-10T00:57:11.439Z,10.00
2024-03-10T00:59:38.472Z,9.90
2024-03-10T01:02:06.564Z,9.82
2024-03-10T01:04:34.112Z,9.80
2024-03-10T01:07:01.093Z,9.78
2024-03-10T01:09:30.147Z,9.77
2024-03-10T01:11:57.329Z,9.80
2024-03-10T01:14:24.501Z,9.89
2024-03-10T01:16:51.737Z,9.89
2024-03-10T01:19:18.749Z,9.88
2024-03-10T01:21:48.545Z,9.86
2024-03-10T01:24:15.487Z,9.80
2024-03-10T01:26:42.439Z,9.70
2024-03-10T01:29:09.378Z,9.67
2024-03-10T01:31:36.531Z,9.66
2024-03-10T01:34:03.476Z,9.66
2024-03-10T01:36:31.653Z,9.65
2024-03-10T01:38:58.597Z,9.64
2024-03-10T01:41:26.477Z,9.63
2024-03-10T01:43:54.086Z,9.63
2024-03-10T01:46:24.957Z,9.62
2024-03-10T01:48:52.110Z,9.61
2024-03-10T01:51:19.161Z,9.60
2024-03-10T01:53:46.412Z,9.58
2024-03-10T01:56:14.678Z,9.50
2024-03-10T01:58:45.259Z,9.40
2024-03-10T02:01:14.551Z,9.29
2024-03-10T02:03:43.651Z,9.22
2024-03-10T02:06:10.718Z,9.16
2024-03-10T02:08:38.521Z,9.14
2024-03-10T02:11:07.318Z,9.16
2024-03-10T02:13:34.256Z,9.19
2024-03-10T02:16:03.500Z,9.20
2024-03-10T02:18:31.432Z,9.22
2024-03-10T02:20:58.865Z,9.24
2024-03-10T02:23:33.525Z,9.25
2024-03-10T02:26:00.581Z,9.26
2024-03-10T02:28:47.058Z,9.27
2024-03-10T02:31:32.646Z,9.28
2024-03-10T02:34:18.306Z,9.29
2024-03-10T02:37:04.000Z,9.29
2024-03-10T02:39:49.582Z,9.28
2024-03-10T02:42:35.070Z,9.26
2024-03-10T02:45:20.744Z,9.23
2024-03-10T02:47:47.734Z,9.22
2024-03-10T02:50:14.922Z,9.21
2024-03-10T02:52:42.083Z,9.19
2024-03-10T02:55:12.616Z,9.18
2024-03-10T02:57:39.571Z,9.16
2024-03-10T03:00:13.416Z,9.16
2024-03-10T03:02:40.418Z,9.15
2024-03-10T03:05:08.296Z,9.12
2024-03-10T03:07:35.152Z,9.04
2024-03-10T03:10:02.180Z,8.98
2024-03-10T03:12:29.435Z,9.01
2024-03-10T03:14:56.230Z,8.95
2024-03-10T03:17:25.072Z,8.93
2024-03-10T03:19:52.135Z,8.86
2024-03-10T03:22:19.039Z,8.93
2024-03-10T03:24:45.871Z,8.93
2024-03-10T03:27:12.651Z,8.92
2024-03-10T03:29:39.683Z,8.87
2024-03-10T03:32:06.635Z,8.77
2024-03-10T03:34:34.468Z,8.64
2024-03-10T03:37:01.469Z,8.57
2024-03-10T03:39:28.632Z,8.53
2024-03-10T03:41:55.631Z,8.53
2024-03-10T03:44:22.780Z,8.53
2024-03-10T03:46:49.923Z,8.53
2024-03-10T03:49:16.962Z,8.53
2024-03-10T03:51:44.639Z,8.49
2024-03-10T03:54:11.574Z,8.45
2024-03-10T03:56:38.509Z,8.43
2024-03-10T03:59:05.637Z,8.43
2024-03-10T04:01:35.372Z,8.43
2024-03-10T04:04:02.310Z,8.45
2024-03-10T04:06:29.567Z,8.46
2024-03-10T04:08:58.463Z,8.48
2024-03-10T04:11:26.492Z,8.49
2024-03-10T04:13:53.834Z,8.50
2024-03-10T04:16:20.819Z,8.50
2024-03-10T04:18:50.024Z,8.50
2024-03-10T04:21:17.890Z,8.51
2024-03-10T04:23:44.737Z,8.52
2024-03-10T04:26:11.970Z,8.53
2024-03-10T04:28:39.441Z,8.52
2024-03-10T04:31:06.481Z,8.53
2024-03-10T04:33:34.117Z,8.52
2024-03-10T04:36:01.703Z,8.52
2024-03-10T04:38:28.925Z,8.51
2024-03-10T04:40:56.831Z,8.49
2024-03-10T04:43:24.072Z,8.48
2024-03-10T04:45:53.887Z,8.45
2024-03-10T04:48:21.399Z,8.43
2024-03-10T04:50:48.896Z,8.41
2024-03-10T04:53:16.321Z,8.39
2024-03-10T04:55:44.938Z,8.39
2024-03-10T04:58:11.998Z,8.39
2024-03-10T05:00:40.690Z,8.38
2024-03-10T05:03:07.609Z,8.37
2024-03-10T05:05:34.810Z,8.37
2024-03-10T05:08:02.168Z,8.37
2024-03-10T05:10:29.575Z,8.39
2024-03-10T05:12:57.157Z,8.40
2024-03-10T05:15:24.088Z,8.40
2024-03-10T05:17:51.187Z,8.41
2024-03-10T05:20:19.257Z,8.44
2024-03-10T05:22:46.831Z,8.46
2024-03-10T05:25:14.004Z,8.50
2024-03-10T05:27:44.337Z,8.53
2024-03-10T05:30:11.896Z,8.56
2024-03-10T05:32:38.850Z,8.59
2024-03-10T05:35:10.296Z,8.63
2024-03-10T05:37:37.468Z,8.67
2024-03-10T05:40:07.101Z,8.69
2024-03-10T05:42:34.102Z,8.72
2024-03-10T05:45:03.521Z,8.76
2024-03-10T05:47:30.912Z,8.80
2024-03-10T05:49:58.009Z,8.85
2024-03-10T05:52:25.140Z,8.90
2024-03-10T05:54:52.493Z,8.95
2024-03-10T05:57:19.336Z,9.01
2024-03-10T05:59:46.308Z,9.06
2024-03-10T06:02:17.263Z,9.10
2024-03-10T06:04:45.674Z,9.16
2024-03-10T06:07:12.760Z,9.23
2024-03-10T06:09:39.842Z,9.30
2024-03-10T06:12:10.569Z,9.36
2024-03-10T06:14:38.746Z,9.42
2024-03-10T06:17:06.542Z,9.46
2024-03-10T06:19:52.481Z,9.52
2024-03-10T06:22:38.241Z,9.56
2024-03-10T06:25:25.983Z,9.62
2024-03-10T06:27:52.913Z,9.67
2024-03-10T06:30:20.697Z,9.72
2024-03-10T06:32:50.227Z,9.75
2024-03-10T06:35:17.677Z,9.80
2024-03-10T06:37:45.504Z,9.83
2024-03-10T06:40:13.072Z,9.88
2024-03-10T06:42:42.128Z,9.95
2024-03-10T06:45:10.659Z,10.03
2024-03-10T06:47:39.809Z,10.13
2024-03-10T06:50:07.751Z,10.23
2024-03-10T06:52:34.748Z,10.34
2024-03-10T06:55:01.601Z,10.44
2024-03-10T06:57:31.093Z,10.53
2024-03-10T06:59:59.482Z,10.63
2024-03-10T07:02:27.673Z,10.73
2024-03-10T07:04:56.775Z,10.83
2024-03-10T07:07:25.120Z,10.91
2024-03-10T07:09:52.281Z,10.99
2024-03-10T07:12:19.223Z,11.10
2024-03-10T07:14:49.001Z,11.19
2024-03-10T07:17:16.774Z,11.29
2024-03-10T07:19:43.876Z,11.39
2024-03-10T07:22:10.997Z,11.49
2024-03-10T07:24:38.443Z,11.59
2024-03-10T07:27:06.565Z,11.67
2024-03-10T07:29:33.840Z,11.74
2024-03-10T07:32:01.603Z,11.82
2024-03-10T07:34:29.506Z,11.91
2024-03-10T07:36:56.356Z,12.00
2024-03-10T07:39:23.676Z,12.07
2024-03-10T07:41:50.624Z,12.13
2024-03-10T07:44:18.084Z,12.19
2024-03-10T07:46:45.267Z,12.24
2024-03-10T07:49:12.185Z,12.30
2024-03-10T07:51:39.133Z,12.36
2024-03-10T07:54:06.273Z,12.42
2024-03-10T07:56:34.280Z,12.48
2024-03-10T07:59:01.490Z,12.52
2024-03-10T08:01:29.025Z,12.56
2024-03-10T08:03:56.618Z,12.62
2024-03-10T08:06:23.618Z,12.69
2024-03-10T08:08:52.876Z,12.75
2024-03-10T08:11:22.836Z,12.82
2024-03-10T08:13:50.178Z,12.86
2024-03-10T08:16:18.402Z,12.91
2024-03-10T08:18:47.343Z,12.95
2024-03-10T08:21:15.789Z,12.98
2024-03-10T08:23:43.336Z,12.99
2024-03-10T08:26:13.771Z,12.83
2024-03-10T08:28:41.122Z,12.83
2024-03-10T08:31:08.069Z,13.06
2024-03-10T08:33:35.014Z,13.13
2024-03-10T08:36:02.075Z,13.17
2024-03-10T08:38:29.905Z,13.13
2024-03-10T08:40:58.536Z,13.17
2024-03-10T08:43:25.768Z,13.12
2024-03-10T08:45:52.815Z,13.35
2024-03-10T08:48:19.973Z,13.44
2024-03-10T08:50:47.721Z,13.51
2024-03-10T08:53:15.103Z,13.56
2024-03-10T08:55:42.501Z,13.60
2024-03-10T08:58:09.685Z,13.62
2024-03-10T09:00:39.488Z,13.64
2024-03-10T09:03:06.535Z,13.64
2024-03-10T09:05:33.557Z,13.65
2024-03-10T09:08:00.645Z,13.66
2024-03-10T09:10:35.688Z,13.68
2024-03-10T09:13:11.425Z,13.72
2024-03-10T09:15:38.784Z,13.74
2024-03-10T09:18:06.759Z,13.79
2024-03-10T09:20:34.178Z,13.89
2024-03-10T09:23:02.084Z,13.94
2024-03-10T09:25:31.146Z,13.99
2024-03-10T09:27:58.312Z,14.04
2024-03-10T09:30:25.974Z,14.07
2024-03-10T09:32:55.237Z,14.14
2024-03-10T09:35:24.801Z,14.11
2024-03-10T09:37:52.255Z,14.14
2024-03-10T09:40:19.818Z,14.20
2024-03-10T09:42:48.269Z,14.25
2024-03-10T09:45:20.660Z,14.28
2024-03-10T09:47:50.962Z,14.33
2024-03-10T09:50:24.782Z,14.37
2024-03-10T09:52:55.981Z,14.38
2024-03-10T09:55:22.948Z,14.42
2024-03-10T09:57:57.392Z,14.45
2024-03-10T10:00:25.882Z,14.51
2024-03-10T10:02:59.551Z,14.54
2024-03-10T10:05:30.738Z,14.57
2024-03-10T10:07:58.082Z,14.60
2024-03-10T10:10:27.136Z,14.63
2024-03-10T10:12:58.074Z,14.66
2024-03-10T10:15:27.075Z,14.68
2024-03-10T10:17:57.910Z,14.68
2024-03-10T10:20:26.457Z,14.67
2024-03-10T10:22:54.392Z,14.64
2024-03-10T10:25:23.046Z,14.63
2024-03-10T10:27:51.464Z,14.62
2024-03-10T10:30:20.352Z,14.61
2024-03-10T10:32:48.061Z,14.61
2024-03-10T10:35:16.913Z,14.61
2024-03-10T10:37:47.697Z,14.62
2024-03-10T10:40:14.871Z,14.64
2024-03-10T10:42:53.721Z,14.66
2024-03-10T10:45:28.193Z,14.70
2024-03-10T10:47:55.142Z,14.72
2024-03-10T10:50:32.352Z,14.74
2024-03-10T10:53:00.318Z,14.76
2024-03-10T10:55:28.432Z,14.79
2024-03-10T10:58:12.530Z,14.83
2024-03-10T11:00:43.586Z,14.85
2024-03-10T11:03:15.582Z,14.87
2024-03-10T11:06:15.940Z,14.91
2024-03-10T11:08:49.123Z,14.99
2024-03-10T11:11:48.263Z,15.08
2024-03-10T11:14:23.131Z,15.16
2024-03-10T11:16:50.498Z,15.23
2024-03-10T11:19:28.109Z,15.30
2024-03-10T11:21:56.083Z,15.31
2024-03-10T11:24:26.733Z,15.33
2024-03-10T11:27:19.361Z,15.39
2024-03-10T11:29:46.707Z,15.45
2024-03-10T11:32:35.457Z,15.50
2024-03-10T11:35:07.710Z,15.56
2024-03-10T11:37:37.860Z,15.61
2024-03-10T11:40:06.238Z,15.65
2024-03-10T11:42:33.697Z,15.69
2024-03-10T11:45:03.498Z,15.72
2024-03-10T11:47:32.849Z,15.76
2024-03-10T11:50:05.265Z,15.78
2024-03-10T11:52:32.832Z,15.82
2024-03-10T11:55:00.137Z,15.84
2024-03-10T11:57:27.452Z,15.86
2024-03-10T11:59:55.727Z,15.89
2024-03-10T12:02:23.446Z,15.93
2024-03-10T12:04:50.746Z,15.97
2024-03-10T12:07:17.895Z,16.01
2024-03-10T12:09:44.932Z,16.04
2024-03-10T12:12:13.789Z,16.07
2024-03-10T12:14:44.146Z,16.10
2024-03-10T12:17:14.373Z,16.12
2024-03-10T12:19:44.378Z,16.12
2024-03-10T12:22:11.940Z,16.14
2024-03-10T12:24:40.741Z,16.15
2024-03-10T12:27:08.375Z,16.16
2024-03-10T12:29:49.150Z,16.18
2024-03-10T12:32:16.539Z,16.16
2024-03-10T12:34:44.988Z,16.16
2024-03-10T12:37:13.362Z,16.18
2024-03-10T12:39:40.427Z,16.21
2024-03-10T12:42:07.783Z,16.24
2024-03-10T12:44:34.818Z,16.26
2024-03-10T12:47:01.901Z,16.27
2024-03-10T12:49:29.111Z,16.28
2024-03-10T12:51:56.277Z,16.29
2024-03-10T12:54:23.211Z,16.29
2024-03-10T12:56:50.606Z,16.27
2024-03-10T12:59:17.768Z,16.26
2024-03-10T13:01:44.956Z,16.25
2024-03-10T13:04:12.221Z,16.22
2024-03-10T13:06:39.796Z,16.20
2024-03-10T13:09:09.952Z,16.18
2024-03-10T13:11:37.035Z,16.17
2024-03-10T13:14:05.435Z,16.17
2024-03-10T13:16:32.769Z,16.18
2024-03-10T13:19:01.455Z,16.17
2024-03-10T13:21:29.552Z,16.14
2024-03-10T13:23:58.523Z,16.10
2024-03-10T13:26:25.609Z,16.09
2024-03-10T13:28:52.874Z,16.06
2024-03-10T13:31:19.889Z,16.04
2024-03-10T13:33:47.136Z,16.03
2024-03-10T13:36:17.789Z,16.03
2024-03-10T13:38:45.742Z,16.02
2024-03-10T13:41:13.141Z,16.02
2024-03-10T13:43:43.804Z,16.01
2024-03-10T13:46:12.942Z,15.99
2024-03-10T13:48:40.766Z,15.98
2024-03-10T13:51:08.525Z,15.96
2024-03-10T13:53:35.949Z,15.94
2024-03-10T13:56:04.773Z,15.92
2024-03-10T13:58:32.227Z,15.89
2024-03-10T14:00:59.503Z,15.86
2024-03-10T14:03:26.960Z,15.84
2024-03-10T14:05:54.268Z,15.82
2024-03-10T14:08:21.590Z,15.81
2024-03-10T14:10:49.174Z,15.80
2024-03-10T14:13:19.237Z,15.79
2024-03-10T14:15:46.487Z,15.78
2024-03-10T14:18:13.965Z,15.76
2024-03-10T14:20:40.988Z,15.75
2024-03-10T14:23:08.454Z,15.73
2024-03-10T14:25:35.687Z,15.69
2024-03-10T14:28:03.338Z,15.65
2024-03-10T14:30:31.132Z,15.62
2024-03-10T14:33:01.068Z,15.61
2024-03-10T14:35:29.737Z,15.60
2024-03-10T14:37:57.296Z,15.57
2024-03-10T14:40:24.442Z,15.54
2024-03-10T14:42:52.976Z,15.50
2024-03-10T14:45:20.615Z,15.45
2024-03-10T14:47:50.038Z,15.43
2024-03-10T14:50:22.355Z,15.38
2024-03-10T14:52:50.111Z,15.33
2024-03-10T14:55:17.359Z,15.28
2024-03-10T14:57:45.196Z,15.24
2024-03-10T15:00:40.528Z,15.20
2024-03-10T15:03:08.857Z,15.16
2024-03-10T15:05:40.420Z,15.13
2024-03-10T15:08:09.167Z,15.10
2024-03-10T15:10:37.011Z,15.06
2024-03-10T15:13:05.962Z,15.04
2024-03-10T15:15:32.935Z,15.01
2024-03-10T15:18:00.379Z,14.95
2024-03-10T15:20:28.001Z,14.90
2024-03-10T15:22:55.242Z,14.84
2024-03-10T15:25:23.482Z,14.80
2024-03-10T15:27:50.439Z,14.76
2024-03-10T15:30:20.876Z,14.69
2024-03-10T15:32:49.045Z,14.64
2024-03-10T15:35:17.322Z,14.58
2024-03-10T15:37:44.964Z,14.55
2024-03-10T15:40:13.344Z,14.51
2024-03-10T15:42:44.183Z,14.46
2024-03-10T15:45:13.687Z,14.45
2024-03-10T15:47:41.319Z,14.42
2024-03-10T15:50:10.427Z,14.37
2024-03-10T15:52:37.588Z,14.27
2024-03-10T15:55:06.462Z,14.16
2024-03-10T15:57:33.484Z,14.09
2024-03-10T16:00:00.501Z,14.03
2024-03-10T16:02:27.670Z,13.97
2024-03-10T16:04:54.958Z,13.92
2024-03-10T16:07:22.090Z,13.88
2024-03-10T16:09:51.038Z,13.84
2024-03-10T16:12:19.523Z,13.80
2024-03-10T16:14:46.712Z,13.75
2024-03-10T16:17:15.683Z,13.71
2024-03-10T16:19:43.396Z,13.66
2024-03-10T16:22:11.164Z,13.62
2024-03-10T16:24:40.669Z,13.60
2024-03-10T16:27:08.021Z,13.58
2024-03-10T16:29:35.251Z,13.55
2024-03-10T16:32:02.572Z,13.52
2024-03-10T16:34:29.875Z,13.50
2024-03-10T16:36:56.938Z,13.49
2024-03-10T16:39:23.976Z,13.48
2024-03-10T16:41:50.925Z,13.45
2024-03-10T16:44:18.174Z,13.45
2024-03-10T16:46:45.316Z,13.48
2024-03-10T16:49:12.363Z,13.44
2024-03-10T16:51:39.757Z,13.43
2024-03-10T16:54:06.762Z,13.41
2024-03-10T16:56:34.057Z,13.39
2024-03-10T16:59:01.400Z,13.38
2024-03-10T17:01:30.099Z,13.38
2024-03-10T17:03:59.052Z,13.38
2024-03-10T17:06:26.129Z,13.37
2024-03-10T17:08:53.315Z,13.36
2024-03-10T17:11:22.918Z,13.35
2024-03-10T17:13:50.105Z,13.33
2024-03-10T17:16:17.083Z,13.32
2024-03-10T17:18:45.151Z,13.31
2024-03-10T17:21:12.157Z,13.29
2024-03-10T17:23:40.737Z,13.28
2024-03-10T17:26:08.042Z,13.28
2024-03-10T17:28:35.065Z,13.27
2024-03-10T17:31:02.087Z,13.26
2024-03-10T17:33:29.432Z,13.24
2024-03-10T17:35:56.715Z,13.22
2024-03-10T17:38:23.790Z,13.21
2024-03-10T17:40:51.716Z,13.20
2024-03-10T17:43:19.985Z,13.19
2024-03-10T17:45:47.210Z,13.18
2024-03-10T17:48:14.205Z,13.17
2024-03-10T17:50:42.322Z,13.18
2024-03-10T17:53:10.827Z,13.15
2024-03-10T17:55:39.219Z,13.17
2024-03-10T17:58:07.595Z,13.17
2024-03-10T18:00:35.072Z,13.17
2024-03-10T18:03:02.914Z,13.18
2024-03-10T18:05:30.932Z,13.19
2024-03-10T18:07:58.128Z,13.20
2024-03-10T18:10:25.509Z,13.21
2024-03-10T18:12:52.741Z,13.22
2024-03-10T18:15:21.431Z,13.23
2024-03-10T18:17:49.334Z,13.22
2024-03-10T18:20:18.184Z,13.22
2024-03-10T18:22:45.573Z,13.21
2024-03-10T18:25:13.299Z,13.21
2024-03-10T18:27:40.352Z,13.20
2024-03-10T18:30:12.554Z,13.19
2024-03-10T18:32:39.956Z,13.19
2024-03-10T18:35:13.000Z,13.20
2024-03-10T18:37:40.741Z,13.19
2024-03-10T18:40:10.396Z,13.20
2024-03-10T18:42:38.044Z,13.20
2024-03-10T18:45:08.268Z,13.17
2024-03-10T18:47:36.707Z,13.15
2024-03-10T18:50:07.401Z,13.15
2024-03-10T18:52:36.534Z,13.15
2024-03-10T18:55:04.544Z,13.15
2024-03-10T18:57:32.268Z,13.12
2024-03-10T18:59:59.512Z,13.09
2024-03-10T19:02:31.603Z,13.10
2024-03-10T19:04:59.058Z,13.11
2024-03-10T19:07:26.172Z,13.12
2024-03-10T19:09:53.334Z,13.13
2024-03-10T19:12:21.147Z,13.13
2024-03-10T19:14:48.393Z,13.13
2024-03-10T19:17:15.634Z,13.13
2024-03-10T19:19:42.839Z,13.12
2024-03-10T19:22:09.885Z,13.12
2024-03-10T19:24:38.267Z,13.12
2024-03-10T19:27:05.208Z,13.11
2024-03-10T19:29:32.428Z,13.11
2024-03-10T19:31:59.634Z,13.11
2024-03-10T19:34:26.663Z,13.11
2024-03-10T19:36:54.678Z,13.11
2024-03-10T19:39:21.762Z,13.11
2024-03-10T19:41:48.761Z,13.10
2024-03-10T19:44:15.803Z,13.08
2024-03-10T19:46:43.836Z,13.09
2024-03-10T19:49:11.009Z,13.09
2024-03-10T19:51:38.650Z,13.08
2024-03-10T19:54:05.726Z,13.06
2024-03-10T19:56:32.887Z,13.05
2024-03-10T19:59:00.024Z,13.04
2024-03-10T20:01:28.555Z,13.03
2024-03-10T20:03:57.261Z,13.03
2024-03-10T20:06:25.462Z,13.03
2024-03-10T20:08:52.600Z,13.02
2024-03-10T20:11:19.946Z,13.02
2024-03-10T20:13:48.985Z,13.02
2024-03-10T20:16:16.491Z,13.01
2024-03-10T20:18:43.436Z,13.00
2024-03-10T20:21:12.437Z,12.98
2024-03-10T20:23:39.615Z,12.96
2024-03-10T20:26:08.310Z,12.94
2024-03-10T20:28:35.427Z,12.93
2024-03-10T20:31:02.682Z,12.92
2024-03-10T20:33:34.144Z,12.91
2024-03-10T20:36:02.901Z,12.89
2024-03-10T20:38:30.405Z,12.89
2024-03-10T20:40:58.187Z,12.89
2024-03-10T20:43:25.486Z,12.89
2024-03-10T20:45:59.182Z,12.90
2024-03-10T20:48:32.373Z,12.91
2024-03-10T20:51:00.026Z,12.91
2024-03-10T20:53:27.557Z,12.91
2024-03-10T20:55:55.962Z,12.91
2024-03-10T20:58:23.965Z,12.90
2024-03-10T21:00:54.689Z,12.89
2024-03-10T21:03:22.022Z,12.88
2024-03-10T21:05:49.579Z,12.87
2024-03-10T21:08:16.890Z,12.87
2024-03-10T21:10:44.036Z,12.87
2024-03-10T21:13:11.133Z,12.86
2024-03-10T21:15:39.002Z,12.85
2024-03-10T21:18:06.877Z,12.84
2024-03-10T21:20:35.634Z,12.84
2024-03-10T21:23:02.551Z,12.82
2024-03-10T21:25:30.561Z,12.82
2024-03-10T21:27:57.534Z,12.81
2024-03-10T21:30:24.349Z,12.81
2024-03-10T21:32:51.449Z,12.81
2024-03-10T21:35:21.653Z,12.80
2024-03-10T21:37:48.566Z,12.80
2024-03-10T21:40:17.254Z,12.79
2024-03-10T21:42:44.917Z,12.79
2024-03-10T21:45:12.782Z,12.79
2024-03-10T21:47:42.299Z,12.80
2024-03-10T21:50:11.295Z,12.80
2024-03-10T21:52:39.445Z,12.80
2024-03-10T21:55:06.763Z,12.81
2024-03-10T21:57:35.073Z,12.80
2024-03-10T22:00:11.750Z,12.80
2024-03-10T22:02:39.490Z,12.79
2024-03-10T22:05:07.085Z,12.79
2024-03-10T22:07:35.457Z,12.79
2024-03-10T22:10:02.936Z,12.78
2024-03-10T22:12:30.143Z,12.78
2024-03-10T22:14:57.315Z,12.77
2024-03-10T22:17:24.328Z,12.76
2024-03-10T22:19:51.601Z,12.76
2024-03-10T22:22:18.443Z,12.76
2024-03-10T22:24:45.295Z,12.76
2024-03-10T22:27:12.354Z,12.76
2024-03-10T22:29:39.476Z,12.76
2024-03-10T22:32:09.353Z,12.75
2024-03-10T22:34:36.246Z,12.74
2024-03-10T22:37:03.593Z,12.73
2024-03-10T22:39:30.848Z,12.72
2024-03-10T22:41:58.099Z,12.72
2024-03-10T22:44:25.068Z,12.71
2024-03-10T22:46:51.990Z,12.72
2024-03-10T22:49:18.943Z,12.72
2024-03-10T22:51:46.289Z,12.72
2024-03-10T22:54:15.186Z,12.72
2024-03-10T22:56:42.077Z,12.72
2024-03-10T22:59:09.008Z,12.73
2024-03-10T23:01:36.342Z,12.72
2024-03-10T23:04:04.445Z,12.71
2024-03-10T23:06:31.641Z,12.70
2024-03-10T23:08:59.111Z,12.70
2024-03-10T23:11:26.140Z,12.70
2024-03-10T23:13:53.192Z,12.70
2024-03-10T23:16:20.648Z,12.53
2024-03-10T23:18:50.455Z,12.43
2024-03-10T23:21:17.397Z,12.43
2024-03-10T23:23:46.329Z,12.62
2024-03-10T23:26:13.447Z,12.67
2024-03-10T23:28:40.602Z,12.68
2024-03-10T23:31:08.868Z,12.68
2024-03-10T23:33:36.659Z,12.67
2024-03-10T23:36:04.084Z,12.67
2024-03-10T23:38:31.386Z,12.67
2024-03-10T23:40:58.909Z,12.68
2024-03-10T23:43:27.428Z,12.68
2024-03-10T23:45:54.325Z,12.68
2024-03-10T23:48:22.858Z,12.68
2024-03-10T23:50:51.216Z,12.67
2024-03-10T23:53:19.781Z,12.67
2024-03-10T23:55:56.037Z,12.68
2024-03-10T23:58:22.972Z,12.67
